Time;durP1;ratioP1;P1;durP2;ratioP2;P2;SDS_P1;SDS_P2;PMS_P1;PMS_P2;Temp;Humidity;BMP_temperature;BMP_pressure;BME280_temperature;BME280_humidity;BME280_pressure;Samples;Min_cycle;Max_cycle;Signal;HPM_P1;HPM_P2
2022/10/07 00:01:45;;;;;;;6.70;4.47;;;;;;;15.02;77.96;101445.77;1745377;82;21131;-65
2022/10/07 00:04:15;;;;;;;6.87;4.58;;;;;;;14.98;78.13;101444.46;1734291;82;21034;-67
2022/10/07 00:06:45;;;;;;;9.03;4.20;;;;;;;14.94;78.38;101449.17;1747236;82;21297;-67
2022/10/07 00:09:14;;;;;;;7.37;4.45;;;;;;;14.91;78.50;101454.04;1739394;82;21081;-66
2022/10/07 00:11:45;;;;;;;7.62;4.55;;;;;;;14.89;78.64;101447.87;1729316;82;21014;-66
2022/10/07 00:14:16;;;;;;;8.23;4.58;;;;;;;14.86;78.89;101448.27;1740441;82;21675;-66
2022/10/07 00:16:46;;;;;;;7.10;5.00;;;;;;;14.84;79.02;101450.90;1738573;82;21065;-65
2022/10/07 00:19:16;;;;;;;12.58;4.70;;;;;;;14.80;79.21;101450.45;1729809;82;21082;-66
2022/10/07 00:21:47;;;;;;;8.63;4.45;;;;;;;14.76;79.41;101451.90;1729790;82;21057;-66
2022/10/07 00:24:16;;;;;;;5.95;4.40;;;;;;;14.73;79.61;101459.72;1730320;82;21046;-66
2022/10/07 00:26:45;;;;;;;9.95;4.50;;;;;;;14.71;79.77;101463.20;1737862;82;21006;-68
2022/10/07 00:29:14;;;;;;;10.85;5.28;;;;;;;14.70;79.91;101461.50;1738973;82;21042;-68
2022/10/07 00:31:44;;;;;;;5.83;4.45;;;;;;;14.66;80.06;101465.19;1738628;80;21043;-67
2022/10/07 00:34:13;;;;;;;8.00;4.90;;;;;;;14.63;80.25;101464.73;1740351;82;21013;-67
2022/10/07 00:36:45;;;;;;;7.75;5.12;;;;;;;14.60;80.45;101461.84;1742657;81;21635;-66
2022/10/07 00:39:16;;;;;;;10.40;5.15;;;;;;;14.59;80.58;101464.27;1753358;82;21034;-66
2022/10/07 00:41:50;;;;;;;9.08;5.00;;;;;;;14.58;80.70;101465.32;1753308;82;21014;-66
2022/10/07 00:44:37;;;;;;;11.28;5.65;;;;;;;14.55;80.79;101467.09;1719033;82;21022;-65
2022/10/07 00:47:29;;;;;;;8.53;5.28;;;;;;;14.51;80.96;101469.92;1731811;82;21014;-67
2022/10/07 00:50:13;;;;;;;10.30;5.62;;;;;;;14.49;81.25;101481.16;1753024;81;21043;-67
2022/10/07 00:52:50;;;;;;;9.05;5.30;;;;;;;14.46;81.31;101477.41;1753081;82;21045;-66
2022/10/07 00:55:22;;;;;;;7.92;5.25;;;;;;;14.42;81.55;101480.72;1732394;81;21050;-64
2022/10/07 00:57:54;;;;;;;7.28;4.62;;;;;;;14.40;81.70;101484.20;1744005;81;21062;-66
2022/10/07 01:00:24;;;;;;;9.55;5.15;;;;;;;14.37;81.90;101485.98;1733183;81;21054;-67
2022/10/07 01:02:55;;;;;;;9.53;5.12;;;;;;;14.34;82.05;101483.61;1753142;81;21011;-67
2022/10/07 01:05:26;;;;;;;8.33;5.08;;;;;;;14.31;82.18;101486.23;1732889;82;21094;-66
2022/10/07 01:07:57;;;;;;;12.68;5.20;;;;;;;14.26;82.46;101491.45;1733367;82;21050;-66
2022/10/07 01:10:48;;;;;;;8.00;5.00;;;;;;;14.24;82.71;101490.79;1734915;82;21010;-67
2022/10/07 01:13:30;;;;;;;8.10;4.95;;;;;;;14.23;82.80;101491.84;1750029;82;21070;-65
2022/10/07 01:16:22;;;;;;;6.65;4.78;;;;;;;14.21;82.89;101494.79;1748468;82;21058;-67
2022/10/07 01:19:12;;;;;;;6.65;4.90;;;;;;;14.20;83.05;101493.08;1739749;81;21050;-66
2022/10/07 01:22:23;;;;;;;8.18;5.30;;;;;;;14.16;83.25;101493.67;1738780;81;20986;-65
2022/10/07 01:25:16;;;;;;;8.18;4.80;;;;;;;14.13;83.45;101505.94;1722148;82;21061;-66
2022/10/07 01:27:53;;;;;;;8.30;4.70;;;;;;;14.11;83.65;101509.94;1718974;82;20994;-68
2022/10/07 01:30:23;;;;;;;8.35;4.58;;;;;;;14.09;83.83;101512.03;1739303;82;21438;-67
2022/10/07 01:32:58;;;;;;;8.33;4.80;;;;;;;14.08;84.06;101511.70;1738844;81;21002;-67
2022/10/07 01:35:34;;;;;;;11.97;4.95;;;;;;;14.05;84.29;101516.22;1729508;82;21018;-67
2022/10/07 01:38:07;;;;;;;8.15;5.08;;;;;;;14.04;84.47;101517.27;1738057;82;21070;-66
2022/10/07 01:40:56;;;;;;;8.73;4.37;;;;;;;14.03;84.53;101512.28;1722257;82;21399;-66
2022/10/07 01:43:25;;;;;;;8.33;4.37;;;;;;;14.00;84.61;101514.56;1741723;82;21077;-66
2022/10/07 01:45:55;;;;;;;9.03;5.05;;;;;;;13.96;84.80;101512.72;1729380;82;21454;-67
2022/10/07 01:48:25;;;;;;;8.45;5.17;;;;;;;13.93;85.06;101509.83;1729821;82;21017;-67
2022/10/07 01:50:58;;;;;;;7.37;4.70;;;;;;;13.93;85.30;101513.96;1729430;82;21050;-67
2022/10/07 01:53:50;;;;;;;7.58;5.00;;;;;;;13.94;85.35;101514.81;1740244;82;21022;-66
2022/10/07 01:56:47;;;;;;;6.40;4.78;;;;;;;13.93;85.43;101518.09;1752931;82;21007;-67
2022/10/07 01:59:34;;;;;;;8.70;5.40;;;;;;;13.97;85.63;101519.94;1743663;80;21445;-66
2022/10/07 02:02:21;;;;;;;7.83;4.80;;;;;;;13.98;85.84;101529.92;1727654;82;21015;-67
2022/10/07 02:05:26;;;;;;;9.83;4.60;;;;;;;13.97;86.06;101525.45;1728133;81;21449;-66
2022/10/07 02:08:05;;;;;;;7.58;4.70;;;;;;;14.00;86.18;101533.33;1744711;82;21074;-67
2022/10/07 02:11:06;;;;;;;8.73;4.72;;;;;;;14.03;86.23;101540.36;1751206;81;21120;-65
2022/10/07 02:13:50;;;;;;;9.73;4.87;;;;;;;14.06;86.24;101546.87;1729421;82;21446;-66
2022/10/07 02:16:27;;;;;;;9.18;4.70;;;;;;;14.06;86.28;101550.48;1729775;82;21011;-66
2022/10/07 02:18:58;;;;;;;5.58;4.42;;;;;;;14.06;86.27;101555.98;1729223;82;21073;-67
2022/10/07 02:21:30;;;;;;;7.80;4.50;;;;;;;14.07;86.24;101556.32;1739366;82;20995;-67
2022/10/07 02:23:59;;;;;;;7.87;4.50;;;;;;;14.08;86.09;101558.03;1737846;82;21034;-66
2022/10/07 02:26:30;;;;;;;8.33;4.70;;;;;;;14.10;86.00;101560.59;1703644;82;21033;-65
2022/10/07 02:29:01;;;;;;;5.42;4.05;;;;;;;14.08;86.02;101566.30;1733137;82;21051;-68
2022/10/07 02:31:32;;;;;;;7.45;4.45;;;;;;;14.07;85.93;101571.48;1743349;80;21090;-66
2022/10/07 02:34:04;;;;;;;7.85;4.55;;;;;;;14.05;85.87;101569.44;1753412;82;21508;-66
2022/10/07 02:36:57;;;;;;;9.05;3.60;;;;;;;14.07;85.79;101579.75;1743212;82;21022;-67
2022/10/07 02:39:28;;;;;;;9.20;3.85;;;;;;;14.09;85.46;101580.94;1707331;83;21264;-67
2022/10/07 02:42:04;;;;;;;6.15;3.33;;;;;;;14.09;84.99;101580.94;1750703;81;21080;-67
2022/10/07 02:44:54;;;;;;;6.00;3.50;;;;;;;14.07;84.46;101585.78;1743137;82;21022;-67
2022/10/07 02:47:48;;;;;;;8.43;3.67;;;;;;;14.06;83.85;101590.44;1682686;85;21053;-68
2022/10/07 02:50:21;;;;;;;6.33;3.55;;;;;;;14.05;83.19;101592.86;1673846;83;21078;-67
2022/10/07 02:52:52;;;;;;;6.33;3.40;;;;;;;14.03;82.61;101594.95;1752921;82;21014;-67
2022/10/07 02:55:25;;;;;;;6.25;3.40;;;;;;;14.01;82.29;101597.05;1753254;82;21031;-66
2022/10/07 02:57:58;;;;;;;7.00;3.40;;;;;;;13.98;82.04;101599.34;1750961;82;21073;-67
2022/10/07 03:00:29;;;;;;;8.83;3.50;;;;;;;13.93;81.79;101601.28;1703107;83;21050;-67
2022/10/07 03:03:03;;;;;;;5.12;3.15;;;;;;;13.92;81.68;101603.70;1740022;81;21480;-67
2022/10/07 03:05:36;;;;;;;6.70;3.60;;;;;;;13.92;81.55;101606.46;1737269;82;21021;-66
2022/10/07 03:08:08;;;;;;;7.00;3.35;;;;;;;13.90;81.40;101614.92;1743037;81;21046;-65
2022/10/07 03:10:37;;;;;;;6.50;3.30;;;;;;;13.89;81.37;101610.45;1727771;81;21122;-66
2022/10/07 03:13:08;;;;;;;5.30;3.40;;;;;;;13.86;81.35;101614.11;1752648;82;21006;-67
2022/10/07 03:15:39;;;;;;;4.87;3.47;;;;;;;13.84;81.34;101620.34;1742602;81;21488;-67
2022/10/07 03:18:34;;;;;;;6.72;4.28;;;;;;;13.81;81.39;101618.81;1731895;82;21015;-67
2022/10/07 03:20:45;;;;;;;7.10;3.37;;;;;;;13.79;81.44;101619.52;1730240;82;21097;-66
2022/10/07 03:23:15;;;;;;;7.10;3.70;;;;;;;13.77;81.64;101615.25;1728494;82;21021;-66
2022/10/07 03:25:50;;;;;;;5.10;3.62;;;;;;;13.75;81.81;101623.70;1747132;82;21034;-65
2022/10/07 03:28:23;;;;;;;8.13;3.55;;;;;;;13.74;82.01;101622.52;1729266;81;21065;-65
2022/10/07 03:30:52;;;;;;;6.87;3.77;;;;;;;13.73;82.09;101627.69;1729306;82;21093;-66
2022/10/07 03:33:25;;;;;;;5.20;3.40;;;;;;;13.71;82.15;101625.64;1681614;85;21482;-67
2022/10/07 03:35:55;;;;;;;10.13;3.75;;;;;;;13.68;82.25;101629.63;1691566;83;21031;-67
2022/10/07 03:38:26;;;;;;;7.03;3.40;;;;;;;13.64;82.34;101626.36;1691847;83;21069;-66
2022/10/07 03:40:55;;;;;;;6.62;3.60;;;;;;;13.60;82.46;101627.78;1691581;85;21113;-66
2022/10/07 03:43:25;;;;;;;7.55;3.67;;;;;;;13.56;82.47;101621.46;1681495;85;21478;-65
2022/10/07 03:45:57;;;;;;;7.08;3.40;;;;;;;13.52;82.35;101626.48;1691612;85;21038;-67
2022/10/07 03:48:27;;;;;;;6.97;3.20;;;;;;;13.50;82.24;101632.70;1681511;85;21126;-66
2022/10/07 03:50:57;;;;;;;8.03;3.15;;;;;;;13.48;82.03;101633.41;1691710;84;21118;-67
2022/10/07 03:53:30;;;;;;;7.05;3.25;;;;;;;13.42;81.94;101642.94;1692245;84;21070;-67
2022/10/07 03:56:01;;;;;;;7.28;3.22;;;;;;;13.38;81.57;101634.72;1691782;85;21098;-67
2022/10/07 03:58:32;;;;;;;7.53;3.35;;;;;;;13.35;81.29;101646.95;1681876;85;21075;-66
2022/10/07 04:01:09;;;;;;;6.42;3.05;;;;;;;13.32;80.95;101641.82;1674438;85;21055;-66
2022/10/07 04:03:44;;;;;;;5.70;2.98;;;;;;;13.30;80.56;101651.64;1691741;84;21115;-66
2022/10/07 04:06:15;;;;;;;7.53;3.22;;;;;;;13.25;80.39;101654.09;1691549;85;21075;-66
2022/10/07 04:08:45;;;;;;;6.22;3.20;;;;;;;13.21;80.14;101654.64;1694645;84;21067;-67
2022/10/07 04:11:16;;;;;;;7.87;3.10;;;;;;;13.19;79.97;101647.09;1694876;84;21094;-66
2022/10/07 04:13:47;;;;;;;6.30;2.52;;;;;;;13.18;79.69;101650.89;1694766;85;21035;-66
2022/10/07 04:16:17;;;;;;;9.10;2.87;;;;;;;13.16;79.34;101659.30;1694819;85;21094;-65
2022/10/07 04:18:48;;;;;;;10.35;3.12;;;;;;;13.13;79.00;101661.56;1694985;84;21101;-66
2022/10/07 04:21:21;;;;;;;6.50;3.27;;;;;;;13.10;78.89;101664.16;1695063;85;21039;-68
2022/10/07 04:23:51;;;;;;;5.72;2.87;;;;;;;13.07;78.83;101667.28;1694692;84;21038;-67
2022/10/07 04:26:21;;;;;;;6.10;2.77;;;;;;;13.06;78.61;101663.33;1694926;85;21070;-67
2022/10/07 04:28:51;;;;;;;12.13;3.40;;;;;;;13.04;78.41;101666.27;1684066;85;21078;-67
2022/10/07 04:31:23;;;;;;;8.30;3.55;;;;;;;13.02;78.21;101666.97;1686258;84;21039;-67
2022/10/07 04:33:54;;;;;;;11.35;3.37;;;;;;;13.00;78.05;101663.03;1685921;84;21074;-66
2022/10/07 04:36:26;;;;;;;9.35;3.22;;;;;;;12.98;77.92;101671.95;1727444;82;21037;-67
2022/10/07 04:39:00;;;;;;;10.43;3.15;;;;;;;12.95;77.78;101669.56;1745520;82;21039;-66
2022/10/07 04:41:32;;;;;;;6.62;3.25;;;;;;;12.92;77.81;101676.80;1731849;82;21149;-66
2022/10/07 04:44:03;;;;;;;8.68;3.47;;;;;;;12.92;77.87;101676.80;1735495;82;21117;-66
2022/10/07 04:46:33;;;;;;;6.47;2.92;;;;;;;12.90;77.82;101680.26;1727410;82;21022;-68
2022/10/07 04:49:05;;;;;;;6.83;2.58;;;;;;;12.90;77.81;101676.65;1726799;82;21018;-66
2022/10/07 04:51:36;;;;;;;7.28;2.85;;;;;;;12.88;77.85;101683.70;1733570;82;21528;-68
2022/10/07 04:54:07;;;;;;;9.35;3.62;;;;;;;12.87;77.89;101680.63;1737684;82;21077;-68
2022/10/07 04:56:39;;;;;;;9.05;3.10;;;;;;;12.86;77.86;101681.66;1746209;82;21051;-68
2022/10/07 04:59:11;;;;;;;9.38;2.92;;;;;;;12.84;77.70;101686.48;1728737;82;21049;-66
2022/10/07 05:01:42;;;;;;;8.48;3.00;;;;;;;12.83;77.61;101686.67;1735187;82;21425;-67
2022/10/07 05:04:12;;;;;;;8.23;2.87;;;;;;;12.82;77.63;101695.95;1742613;82;21604;-66
2022/10/07 05:06:42;;;;;;;13.55;3.05;;;;;;;12.80;77.50;101693.39;1732284;82;21030;-66
2022/10/07 05:09:12;;;;;;;7.78;3.17;;;;;;;12.78;77.49;101691.34;1727612;82;21046;-67
2022/10/07 05:11:47;;;;;;;10.85;5.33;;;;;;;12.79;77.45;101694.95;1752757;81;21006;-66
2022/10/07 05:14:20;;;;;;;8.63;3.02;;;;;;;12.79;77.40;101698.55;1742783;82;21046;-67
2022/10/07 05:16:50;;;;;;;10.05;3.37;;;;;;;12.80;77.20;101696.14;1753076;82;21134;-68
2022/10/07 05:19:22;;;;;;;10.23;3.47;;;;;;;12.81;76.97;101697.85;1732838;81;21069;-67
2022/10/07 05:21:51;;;;;;;8.80;3.00;;;;;;;12.81;76.86;101697.00;1742765;82;21040;-66
2022/10/07 05:24:20;;;;;;;12.13;3.20;;;;;;;12.80;76.51;101700.78;1753160;81;21464;-67
2022/10/07 05:26:50;;;;;;;9.68;3.47;;;;;;;12.80;76.35;101703.53;1743421;82;21508;-67
2022/10/07 05:29:21;;;;;;;7.35;3.27;;;;;;;12.79;76.11;101708.18;1744359;82;21017;-66
2022/10/07 05:31:53;;;;;;;6.72;3.10;;;;;;;12.80;76.08;101714.53;1731577;82;21015;-67
2022/10/07 05:34:24;;;;;;;13.15;3.20;;;;;;;12.80;76.09;101716.77;1734819;81;21084;-68
2022/10/07 05:36:55;;;;;;;8.85;2.92;;;;;;;12.83;75.99;101715.55;1742791;82;21054;-68
2022/10/07 05:39:25;;;;;;;14.98;3.12;;;;;;;12.84;75.94;101713.99;1743053;82;21058;-67
2022/10/07 05:42:00;;;;;;;14.35;2.60;;;;;;;12.83;75.85;101713.66;1752569;82;21085;-68
2022/10/07 05:44:33;;;;;;;6.60;2.55;;;;;;;12.82;75.84;101717.44;1742539;82;21063;-67
2022/10/07 05:47:03;;;;;;;8.63;2.90;;;;;;;12.85;75.68;101723.10;1749977;81;21144;-66
2022/10/07 05:49:34;;;;;;;7.70;2.65;;;;;;;12.85;75.56;101729.46;1729545;82;21483;-69
2022/10/07 05:52:06;;;;;;;8.70;2.83;;;;;;;12.88;75.26;101727.73;1741428;82;21007;-66
2022/10/07 05:54:36;;;;;;;7.40;2.50;;;;;;;12.89;75.13;101724.45;1745727;82;21026;-65
2022/10/07 05:57:08;;;;;;;8.40;2.50;;;;;;;12.92;75.12;101736.48;1741798;82;21092;-65
2022/10/07 05:59:41;;;;;;;9.23;2.42;;;;;;;12.93;74.96;101740.42;1745813;82;21472;-66
2022/10/07 06:02:13;;;;;;;4.87;2.50;;;;;;;12.95;74.66;101736.11;1739533;81;21018;-66
2022/10/07 06:04:45;;;;;;;5.20;2.08;;;;;;;12.97;74.52;101740.40;1739190;81;21089;-66
2022/10/07 06:07:14;;;;;;;6.58;2.15;;;;;;;13.01;74.47;101741.78;1740521;82;21043;-66
2022/10/07 06:15:25;;;;;;;9.50;2.42;;;;;;;13.05;73.93;101751.05;1750674;81;21082;-68
2022/10/07 06:17:56;;;;;;;7.15;2.45;;;;;;;13.07;73.82;101751.73;1735689;82;21030;-67
2022/10/07 06:20:28;;;;;;;8.95;2.60;;;;;;;13.06;73.53;101755.00;1734449;82;21504;-67
2022/10/07 06:22:57;;;;;;;8.45;2.37;;;;;;;13.07;73.26;101760.84;1753147;81;21010;-67
2022/10/07 06:25:29;;;;;;;11.05;2.10;;;;;;;13.07;73.00;101759.98;1741779;82;21026;-67
2022/10/07 06:28:00;;;;;;;9.73;2.47;;;;;;;13.08;72.44;101764.45;1729372;82;21053;-67
2022/10/07 06:30:30;;;;;;;9.08;2.00;;;;;;;13.08;72.20;101765.30;1729739;82;21062;-67
2022/10/07 06:33:02;;;;;;;6.83;1.92;;;;;;;13.10;72.15;101766.50;1734355;82;21458;-68
2022/10/07 06:35:32;;;;;;;11.25;2.80;;;;;;;13.11;71.98;101768.22;1752849;82;21011;-68
2022/10/07 06:38:04;;;;;;;8.50;2.35;;;;;;;13.13;71.77;101770.27;1729358;82;21492;-66
2022/10/07 06:40:35;;;;;;;10.35;2.42;;;;;;;13.16;71.82;101769.91;1736725;82;21050;-68
2022/10/07 06:43:05;;;;;;;8.53;2.35;;;;;;;13.19;71.78;101775.08;1753064;82;21026;-67
2022/10/07 06:45:41;;;;;;;9.28;2.37;;;;;;;13.21;71.70;101768.87;1749533;82;21022;-66
2022/10/07 06:48:13;;;;;;;13.28;2.27;;;;;;;13.25;71.56;101764.72;1753177;81;21038;-67
2022/10/07 06:50:53;;;;;;;15.40;3.20;;;;;;;13.27;71.48;101776.41;1743789;82;21082;-67
2022/10/07 06:53:26;;;;;;;10.63;2.90;;;;;;;13.28;71.31;101774.84;1665771;85;21087;-67
2022/10/07 06:56:01;;;;;;;14.10;2.55;;;;;;;13.32;71.07;101774.81;1674485;84;21082;-67
2022/10/07 06:58:33;;;;;;;9.18;2.50;;;;;;;13.35;70.83;101776.34;1679475;84;21201;-67
2022/10/07 07:01:05;;;;;;;11.57;3.00;;;;;;;13.38;70.77;101782.01;1685558;85;21532;-66
2022/10/07 07:03:35;;;;;;;9.58;2.50;;;;;;;13.39;70.70;101776.32;1680272;84;21098;-67
2022/10/07 07:06:07;;;;;;;6.80;2.35;;;;;;;13.43;70.58;101783.18;1652516;84;21085;-66
2022/10/07 07:08:39;;;;;;;11.08;2.83;;;;;;;13.44;70.48;101779.91;1670124;85;21113;-67
2022/10/07 07:14:02;;;;;;;9.40;2.40;;;;;;;13.49;69.88;101782.97;1630975;87;21431;-66
2022/10/07 07:16:34;;;;;;;9.93;2.50;;;;;;;13.52;69.65;101784.83;1630967;86;21098;-67
2022/10/07 07:19:07;;;;;;;9.08;2.05;;;;;;;13.54;69.57;101778.63;1659084;86;21080;-66
2022/10/07 07:21:39;;;;;;;8.18;2.60;;;;;;;13.56;69.60;101770.17;1661274;86;21157;-65
2022/10/07 07:24:11;;;;;;;11.88;2.22;;;;;;;13.56;69.27;101776.54;1661501;86;21136;-68
2022/10/07 07:26:41;;;;;;;9.30;2.33;;;;;;;13.58;68.82;101775.84;1661440;86;21485;-69
2022/10/07 07:29:13;;;;;;;7.78;1.82;;;;;;;13.61;68.71;101772.72;1661446;86;21127;-67
2022/10/07 07:31:46;;;;;;;6.60;2.27;;;;;;;13.64;68.48;101772.34;1661288;85;21052;-68
2022/10/07 07:34:18;;;;;;;6.80;1.95;;;;;;;13.69;68.62;101771.83;1661423;85;21057;-68
2022/10/07 07:36:52;;;;;;;10.20;2.00;;;;;;;13.73;67.69;101773.69;1661569;85;21112;-68
2022/10/07 07:39:23;;;;;;;10.00;2.85;;;;;;;13.77;67.18;101765.39;1661445;86;21072;-69
2022/10/07 07:41:58;;;;;;;5.85;2.10;;;;;;;13.79;66.93;101766.92;1660079;86;21084;-67
2022/10/07 07:44:39;;;;;;;11.12;2.02;;;;;;;13.85;66.70;101768.08;1666367;85;21113;-69
2022/10/07 07:47:15;;;;;;;7.40;2.30;;;;;;;14.07;66.44;101768.55;1698344;84;21019;-67
2022/10/07 07:49:45;;;;;;;6.62;2.10;;;;;;;14.48;65.85;101766.27;1664684;84;21540;-69
2022/10/07 07:52:17;;;;;;;10.28;2.22;;;;;;;15.00;64.58;101764.45;1652409;85;21459;-68
2022/10/07 07:54:47;;;;;;;6.85;2.02;;;;;;;15.56;63.36;101759.98;1653759;85;21118;-68
2022/10/07 07:57:17;;;;;;;10.30;2.62;;;;;;;16.05;62.26;101758.67;1624566;88;21550;-68
2022/10/07 07:59:47;;;;;;;216.65;30.62;;;;;;;16.49;60.97;101765.82;1596203;88;21485;-65
2022/10/07 08:02:19;;;;;;;11.10;3.12;;;;;;;16.98;59.71;101756.55;1648587;86;21050;-66
2022/10/07 08:04:49;;;;;;;15.15;2.87;;;;;;;17.48;58.69;101762.14;1652119;86;21546;-67
2022/10/07 08:07:19;;;;;;;6.90;2.02;;;;;;;17.95;56.57;101758.41;1656623;86;21564;-67
2022/10/07 08:09:51;;;;;;;7.75;2.65;;;;;;;18.24;55.65;101753.52;1668767;83;21095;-66
2022/10/07 08:12:22;;;;;;;4.70;2.17;;;;;;;18.50;54.79;101747.91;1692128;83;21113;-67
2022/10/07 08:14:54;;;;;;;8.80;2.37;;;;;;;18.68;54.28;101753.66;1610043;88;21105;-67
2022/10/07 08:17:25;;;;;;;8.48;2.60;;;;;;;18.84;53.46;101754.25;1631379;88;21490;-67
2022/10/07 08:19:55;;;;;;;7.20;2.67;;;;;;;18.93;52.84;101752.97;1631536;86;21054;-66
2022/10/07 08:22:24;;;;;;;8.60;2.52;;;;;;;19.01;53.17;101759.66;1631516;88;21486;-66
2022/10/07 08:24:55;;;;;;;14.40;4.20;;;;;;;19.15;51.81;101750.19;1631570;88;21094;-67
2022/10/07 08:27:24;;;;;;;10.55;2.90;;;;;;;19.30;51.32;101761.02;1631425;86;21559;-68
2022/10/07 08:29:54;;;;;;;8.58;2.42;;;;;;;19.39;50.78;101751.87;1631799;86;21035;-68
2022/10/07 08:32:24;;;;;;;12.58;2.77;;;;;;;19.41;50.87;101749.19;1631609;88;21085;-66
2022/10/07 08:34:55;;;;;;;6.85;2.58;;;;;;;19.40;50.37;101746.09;1596275;88;21059;-68
2022/10/07 08:37:28;;;;;;;10.60;2.62;;;;;;;19.31;50.78;101748.28;1633474;86;21477;-67
2022/10/07 08:39:57;;;;;;;6.30;2.25;;;;;;;19.16;50.56;101746.33;1653722;84;21069;-68
2022/10/07 08:42:40;;;;;;;9.00;2.40;;;;;;;19.02;50.96;101747.47;1692276;84;21557;-68
2022/10/07 08:45:17;;;;;;;6.33;2.37;;;;;;;18.89;50.62;101746.99;1729384;81;21097;-67
2022/10/07 08:47:47;;;;;;;11.10;2.70;;;;;;;18.63;51.35;101755.39;1749183;82;21030;-68
2022/10/07 08:50:29;;;;;;;7.00;2.10;;;;;;;18.45;51.48;101758.81;1729629;82;21750;-68
2022/10/07 08:53:07;;;;;;;7.75;2.60;;;;;;;18.30;52.04;101760.98;1741753;82;21037;-69
2022/10/07 08:55:43;;;;;;;6.00;2.10;;;;;;;18.19;52.49;101756.91;1729054;81;21021;-68
2022/10/07 08:58:36;;;;;;;6.70;2.47;;;;;;;18.08;52.96;101759.47;1730772;82;21006;-68
2022/10/07 09:01:44;;;;;;;8.48;2.15;;;;;;;17.90;53.20;101749.88;1739728;81;21014;-69
2022/10/07 09:04:53;;;;;;;13.58;3.10;;;;;;;17.73;53.22;101748.59;1731622;82;21037;-68
2022/10/07 09:07:46;;;;;;;6.00;2.20;;;;;;;17.61;53.75;101748.86;1732893;82;21105;-67
2022/10/07 09:10:24;;;;;;;6.58;2.45;;;;;;;17.52;54.29;101748.71;1728937;82;21097;-68
2022/10/07 09:13:00;;;;;;;8.70;2.22;;;;;;;17.41;54.47;101739.95;1729890;82;21118;-68
2022/10/07 09:15:55;;;;;;;5.17;2.30;;;;;;;17.33;54.67;101742.06;1752959;82;21102;-69
2022/10/07 09:18:41;;;;;;;7.30;2.35;;;;;;;17.19;54.77;101733.40;1750965;80;21039;-66
2022/10/07 09:21:18;;;;;;;9.23;2.35;;;;;;;17.02;55.02;101741.23;1729250;82;21071;-66
2022/10/07 09:23:55;;;;;;;6.53;2.42;;;;;;;16.92;55.68;101736.61;1703871;83;21535;-66
2022/10/07 09:26:26;;;;;;;5.70;2.00;;;;;;;16.87;55.91;101733.58;1730108;82;21006;-68
2022/10/07 09:28:55;;;;;;;8.48;2.47;;;;;;;16.79;55.81;101733.23;1742851;82;21042;-67
2022/10/07 09:31:26;;;;;;;8.90;2.60;;;;;;;16.69;55.96;101733.61;1717507;82;21044;-66
2022/10/07 09:33:59;;;;;;;10.15;2.50;;;;;;;16.61;56.42;101740.66;1744564;82;21057;-66
2022/10/07 09:36:28;;;;;;;11.65;2.50;;;;;;;16.60;56.76;101740.34;1742511;82;21468;-68
2022/10/07 09:38:58;;;;;;;8.43;2.25;;;;;;;16.58;56.78;101735.54;1728482;82;21081;-67
2022/10/07 09:41:31;;;;;;;8.43;2.30;;;;;;;16.59;56.64;101739.16;1713088;82;21110;-66
2022/10/07 09:44:18;;;;;;;8.20;2.27;;;;;;;16.58;56.58;101731.39;1721911;82;21488;-67
2022/10/07 09:46:50;;;;;;;;;;;;;;;16.54;56.58;101735.63;1734422;82;21050;-69
2022/10/07 09:49:37;;;;;;;8.50;2.52;;;;;;;16.55;56.63;101726.27;1730642;82;20153;-66
2022/10/07 09:52:17;;;;;;;8.13;2.17;;;;;;;16.58;56.48;101725.00;1743013;82;21058;-68
2022/10/07 09:54:47;;;;;;;8.58;2.30;;;;;;;16.60;56.02;101726.50;1741824;81;20979;-68
2022/10/07 09:57:32;;;;;;;8.53;2.08;;;;;;;16.62;56.09;101713.31;1719213;82;21437;-68
2022/10/07 10:00:13;;;;;;;8.20;2.50;;;;;;;16.63;55.75;101715.02;1749725;82;21084;-68
2022/10/07 10:03:04;;;;;;;6.97;2.00;;;;;;;16.65;55.53;101707.90;1729109;82;21014;-68
2022/10/07 10:05:41;;;;;;;8.53;2.45;;;;;;;16.67;55.36;101701.13;1736544;81;21070;-69
2022/10/07 10:08:19;;;;;;;7.47;2.30;;;;;;;16.68;55.62;101702.84;1739297;82;21082;-67
2022/10/07 10:10:54;;;;;;;10.93;2.60;;;;;;;16.70;55.18;101700.72;1726764;82;21018;-68
2022/10/07 10:13:33;;;;;;;7.10;1.80;;;;;;;16.75;54.76;101691.80;1705767;82;20981;-67
2022/10/07 10:16:05;;;;;;;10.15;1.85;;;;;;;16.78;53.89;101694.14;1701172;83;21047;-68
2022/10/07 10:18:39;;;;;;;10.78;2.55;;;;;;;16.80;52.62;101684.57;1697359;82;21316;-67
2022/10/07 10:21:28;;;;;;;5.05;1.60;;;;;;;16.83;51.95;101683.83;1731800;82;21495;-68
2022/10/07 10:24:05;;;;;;;7.25;1.62;;;;;;;16.87;51.56;101688.75;1723302;82;21059;-67
2022/10/07 10:27:02;;;;;;;;;;;;;;;16.92;50.76;101682.62;1670955;84;21054;-67
2022/10/07 10:29:41;;;;;;;7.03;2.17;;;;;;;16.95;49.98;101683.59;1690495;84;20488;-69
2022/10/07 10:32:38;;;;;;;;;;;;;;;16.95;50.14;101683.59;1700360;84;21489;-66
2022/10/07 10:35:28;;;;;;;6.28;1.47;;;;;;;16.94;49.96;101679.11;1689880;84;20190;-68
2022/10/07 10:38:19;;;;;;;4.87;1.40;;;;;;;16.93;49.84;101676.02;1679551;85;21061;-67
2022/10/07 10:41:00;;;;;;;7.90;2.10;;;;;;;16.95;49.61;101671.98;1694467;84;21059;-67
2022/10/07 10:43:56;;;;;;;4.25;1.62;;;;;;;16.98;49.25;101673.48;1690635;84;21087;-69
2022/10/07 10:46:58;;;;;;;9.45;2.00;;;;;;;17.00;48.77;101665.81;1690688;85;21102;-66
2022/10/07 10:49:33;;;;;;;10.30;2.17;;;;;;;17.03;48.53;101667.64;1668718;85;21099;-66
2022/10/07 10:52:35;;;;;;;8.45;1.75;;;;;;;17.05;48.67;101663.27;1684980;85;21075;-67
2022/10/07 10:55:42;;;;;;;4.25;1.30;;;;;;;17.06;49.12;101666.36;1659723;85;21134;-68
2022/10/07 10:58:29;;;;;;;3.83;1.27;;;;;;;17.09;48.60;101662.64;1670293;85;21039;-67
2022/10/07 11:01:36;;;;;;;2.87;1.55;;;;;;;17.17;47.81;101659.35;1728984;82;21006;-67
2022/10/07 11:04:39;;;;;;;5.12;1.77;;;;;;;17.20;47.63;101659.78;1735605;82;21019;-67
2022/10/07 11:07:29;;;;;;;9.95;2.00;;;;;;;17.22;46.74;101654.88;1730573;82;21071;-66
2022/10/07 11:10:06;;;;;;;9.85;1.70;;;;;;;17.23;47.10;101651.05;1662377;85;21512;-67
2022/10/07 11:12:39;;;;;;;6.45;1.98;;;;;;;17.25;47.47;101651.69;1661885;84;21529;-68
2022/10/07 11:15:17;;;;;;;9.05;2.20;;;;;;;17.23;48.63;101646.89;1697075;83;21062;-68
2022/10/07 11:17:46;;;;;;;;;;;;;;;17.20;49.80;101644.55;1699831;83;21067;-68
2022/10/07 11:20:32;;;;;;;8.03;2.20;;;;;;;17.17;50.56;101653.28;1690224;84;20149;-68
2022/10/07 11:23:09;;;;;;;4.60;1.70;;;;;;;17.14;51.14;101652.31;1683339;84;21467;-68
2022/10/07 11:25:43;;;;;;;7.87;2.42;;;;;;;17.11;51.21;101645.81;1670451;85;21514;-68
2022/10/07 11:28:18;;;;;;;6.55;2.17;;;;;;;17.10;50.82;101642.19;1686329;84;21079;-70
2022/10/07 11:30:58;;;;;;;6.55;2.20;;;;;;;17.13;51.66;101645.07;1694782;84;21078;-70
2022/10/07 11:33:47;;;;;;;8.05;2.25;;;;;;;17.14;51.68;101642.63;1699755;84;21058;-67
2022/10/07 11:36:56;;;;;;;10.23;2.10;;;;;;;17.14;52.02;101639.85;1682505;84;21106;-69
2022/10/07 11:39:26;;;;;;;4.97;2.08;;;;;;;17.16;51.96;101640.50;1620186;87;21112;-69
2022/10/07 11:42:09;;;;;;;8.30;2.35;;;;;;;17.17;51.86;101632.50;1633236;87;21066;-69
2022/10/07 11:44:53;;;;;;;4.75;2.22;;;;;;;17.17;52.28;101638.05;1694487;84;21067;-68
2022/10/07 11:47:35;;;;;;;7.10;2.50;;;;;;;17.17;52.52;101635.81;1677674;84;21587;-68
2022/10/07 11:50:16;;;;;;;5.28;2.10;;;;;;;17.18;52.46;101631.44;1631482;86;21131;-67
2022/10/07 11:52:47;;;;;;;5.33;1.77;;;;;;;17.20;52.18;101631.23;1646917;86;21061;-69
2022/10/07 11:55:43;;;;;;;8.10;2.30;;;;;;;17.19;52.32;101630.37;1655906;86;21803;-68
2022/10/07 11:58:31;;;;;;;6.40;1.87;;;;;;;17.18;52.57;101632.83;1632207;86;21086;-68
2022/10/07 12:01:29;;;;;;;5.10;1.87;;;;;;;17.16;52.60;101624.41;1697915;84;21082;-68
2022/10/07 12:04:19;;;;;;;;;;;;;;;17.15;52.76;101624.94;1683001;84;21089;-69
2022/10/07 12:07:33;;;;;;;8.93;2.12;;;;;;;17.15;52.92;101626.33;1678991;85;20221;-67
2022/10/07 12:10:22;;;;;;;8.13;2.70;;;;;;;17.15;52.65;101623.55;1687358;84;21160;-69
2022/10/07 12:13:01;;;;;;;6.28;2.20;;;;;;;17.13;52.57;101617.38;1736470;81;21024;-68
2022/10/07 12:15:42;;;;;;;11.97;1.87;;;;;;;17.15;52.52;101617.16;1662874;84;21039;-69